createdAt,value
2022-08-30T00:02:43.754Z,99.90
2022-08-30T00:05:45.795Z,99.90
2022-08-30T00:08:51.670Z,99.90
2022-08-30T00:11:52.772Z,99.90
2022-08-30T00:14:54.319Z,99.90
2022-08-30T00:17:56.007Z,99.90
2022-08-30T00:20:57.216Z,99.90
2022-08-30T00:23:58.558Z,99.90
2022-08-30T00:26:59.289Z,99.90
2022-08-30T00:30:00.535Z,99.90
2022-08-30T00:33:01.948Z,99.90
2022-08-30T00:36:03.715Z,99.90
2022-08-30T00:39:06.524Z,99.90
2022-08-30T00:42:09.656Z,99.90
2022-08-30T00:45:26.868Z,99.90
2022-08-30T00:48:28.122Z,99.90
2022-08-30T00:51:29.424Z,99.90
2022-08-30T00:54:33.482Z,99.90
2022-08-30T00:57:35.991Z,99.90
2022-08-30T01:00:37.501Z,99.90
2022-08-30T01:03:40.841Z,99.90
2022-08-30T01:06:42.212Z,99.90
2022-08-30T01:09:43.751Z,99.90
2022-08-30T01:12:47.477Z,99.90
2022-08-30T01:15:50.816Z,99.90
2022-08-30T01:18:56.512Z,99.90
2022-08-30T01:22:26.017Z,99.90
2022-08-30T01:25:31.382Z,99.90
2022-08-30T01:28:34.656Z,99.90
2022-08-30T01:31:37.213Z,99.90
2022-08-30T01:34:38.291Z,99.90
2022-08-30T01:37:39.895Z,99.90
2022-08-30T01:40:41.238Z,99.90
2022-08-30T01:43:42.987Z,99.90
2022-08-30T01:46:47.874Z,99.90
2022-08-30T01:49:49.037Z,99.90
2022-08-30T01:52:49.988Z,99.90
2022-08-30T01:55:51.092Z,99.90
2022-08-30T01:58:53.475Z,99.90
2022-08-30T02:01:55.191Z,99.90
2022-08-30T02:04:58.511Z,99.90
2022-08-30T02:08:00.667Z,99.90
2022-08-30T02:11:02.600Z,99.90
2022-08-30T02:14:04.112Z,99.90
2022-08-30T02:17:09.717Z,99.90
2022-08-30T02:20:11.512Z,99.90
2022-08-30T02:23:12.987Z,99.90
2022-08-30T02:26:14.839Z,99.90
2022-08-30T02:29:16.029Z,99.90
2022-08-30T02:32:17.488Z,99.90
2022-08-30T02:35:18.907Z,99.90
2022-08-30T02:38:20.333Z,99.90
2022-08-30T02:41:23.742Z,99.90
2022-08-30T02:44:24.673Z,99.90
2022-08-30T02:47:25.677Z,99.90
2022-08-30T02:50:26.820Z,99.90
2022-08-30T02:53:27.888Z,99.90
2022-08-30T02:56:29.121Z,99.90
2022-08-30T02:59:30.675Z,99.90
2022-08-30T03:02:31.758Z,99.90
2022-08-30T03:05:33.544Z,99.90
2022-08-30T03:08:34.810Z,99.90
2022-08-30T03:11:36.103Z,99.90
2022-08-30T03:14:39.332Z,99.90
2022-08-30T03:17:41.876Z,99.90
2022-08-30T03:20:43.984Z,99.90
2022-08-30T03:23:55.476Z,99.90
2022-08-30T03:26:56.197Z,99.90
2022-08-30T03:29:57.519Z,99.90
2022-08-30T03:32:59.118Z,99.90
2022-08-30T03:36:00.101Z,99.90
2022-08-30T03:39:00.870Z,99.90
2022-08-30T03:42:01.873Z,99.90
2022-08-30T03:45:05.787Z,99.90
2022-08-30T03:48:07.073Z,99.90
2022-08-30T03:51:07.827Z,99.90
2022-08-30T03:54:09.740Z,99.90
2022-08-30T03:57:13.363Z,99.90
2022-08-30T04:00:21.846Z,99.90
2022-08-30T04:03:26.121Z,99.90
2022-08-30T04:06:27.549Z,99.90
2022-08-30T04:09:28.815Z,99.90
2022-08-30T04:12:29.884Z,99.90
2022-08-30T04:15:31.349Z,99.90
2022-08-30T04:18:32.681Z,99.90
2022-08-30T04:21:33.957Z,99.90
2022-08-30T04:24:43.805Z,99.90
2022-08-30T04:27:46.517Z,99.90
2022-08-30T04:30:47.658Z,99.90
2022-08-30T04:33:49.420Z,99.90
2022-08-30T04:36:50.701Z,99.90
2022-08-30T04:39:56.103Z,99.90
2022-08-30T04:42:57.475Z,99.90
2022-08-30T04:45:59.713Z,99.90
2022-08-30T04:49:01.056Z,99.90
2022-08-30T04:52:02.031Z,99.90
2022-08-30T04:55:03.963Z,99.90
2022-08-30T04:58:06.066Z,99.90
2022-08-30T05:01:19.923Z,99.90
2022-08-30T05:04:21.189Z,99.90
2022-08-30T05:07:22.451Z,99.90
2022-08-30T05:10:24.338Z,99.90
2022-08-30T05:13:35.226Z,99.90
2022-08-30T05:16:38.341Z,99.90
2022-08-30T05:19:39.455Z,99.90
2022-08-30T05:22:53.759Z,99.90
2022-08-30T05:25:55.164Z,99.90
2022-08-30T05:28:56.858Z,99.90
2022-08-30T05:31:57.932Z,99.90
2022-08-30T05:34:58.910Z,99.90
2022-08-30T05:38:00.318Z,99.90
2022-08-30T05:41:05.161Z,99.90
2022-08-30T05:44:10.349Z,99.90
2022-08-30T05:47:11.438Z,99.90
2022-08-30T05:50:12.913Z,99.90
2022-08-30T05:53:13.618Z,99.90
2022-08-30T05:56:19.562Z,99.90
2022-08-30T05:59:20.412Z,99.90
2022-08-30T06:02:21.655Z,99.90
2022-08-30T06:05:23.089Z,99.90
2022-08-30T06:08:24.411Z,99.90
2022-08-30T06:11:26.743Z,99.90
2022-08-30T06:14:27.980Z,99.90
2022-08-30T06:17:29.183Z,99.90
2022-08-30T06:20:30.124Z,99.90
2022-08-30T06:23:31.104Z,99.90
2022-08-30T06:29:54.326Z,99.90
2022-08-30T06:32:55.491Z,99.90
2022-08-30T06:36:05.733Z,99.90
2022-08-30T06:39:08.422Z,99.90
2022-08-30T06:42:09.542Z,99.90
2022-08-30T06:45:11.357Z,99.90
2022-08-30T06:48:12.782Z,99.90
2022-08-30T06:51:13.843Z,99.90
2022-08-30T06:54:15.074Z,99.90
2022-08-30T06:57:16.845Z,99.90
2022-08-30T07:00:18.341Z,99.90
2022-08-30T07:03:19.502Z,99.90
2022-08-30T07:06:21.734Z,99.90
2022-08-30T07:09:23.362Z,99.90
2022-08-30T07:12:24.591Z,99.90
2022-08-30T07:15:25.921Z,99.90
2022-08-30T07:18:45.153Z,99.90
2022-08-30T07:21:45.939Z,99.90
2022-08-30T07:24:48.275Z,99.90
2022-08-30T07:27:51.985Z,99.90
2022-08-30T07:30:53.040Z,99.90
2022-08-30T07:33:54.354Z,99.90
2022-08-30T07:36:55.231Z,99.90
2022-08-30T07:39:56.020Z,99.90
2022-08-30T07:42:57.403Z,99.90
2022-08-30T07:46:08.200Z,99.90
2022-08-30T07:49:11.564Z,99.90
2022-08-30T07:52:12.816Z,99.90
2022-08-30T07:55:13.799Z,99.90
2022-08-30T07:58:15.255Z,99.90
2022-08-30T08:01:18.548Z,99.90
2022-08-30T08:04:19.772Z,99.90
2022-08-30T08:07:20.980Z,99.90
2022-08-30T08:10:21.868Z,99.90
2022-08-30T08:13:23.718Z,99.90
2022-08-30T08:16:33.045Z,99.90
2022-08-30T08:19:33.967Z,99.90
2022-08-30T08:22:39.746Z,99.90
2022-08-30T08:25:41.802Z,99.90
2022-08-30T08:28:45.155Z,99.90
2022-08-30T08:31:47.262Z,99.90
2022-08-30T08:34:48.319Z,99.90
2022-08-30T08:37:49.519Z,99.90
2022-08-30T08:41:20.774Z,99.90
2022-08-30T08:45:07.467Z,99.90
2022-08-30T08:48:32.023Z,99.90
2022-08-30T08:52:05.801Z,99.90
2022-08-30T08:55:20.720Z,99.90
2022-08-30T08:58:27.625Z,99.90
2022-08-30T09:01:31.706Z,99.90
2022-08-30T09:04:39.547Z,99.90
2022-08-30T09:07:45.951Z,99.90
2022-08-30T09:10:57.139Z,99.90
2022-08-30T09:13:59.350Z,99.90
2022-08-30T09:17:15.504Z,99.90
2022-08-30T09:20:41.395Z,99.00
2022-08-30T09:23:56.295Z,96.30
2022-08-30T09:26:57.496Z,98.00
2022-08-30T09:33:32.740Z,97.40
2022-08-30T09:36:53.166Z,96.10
2022-08-30T09:39:55.158Z,95.40
2022-08-30T09:43:12.009Z,93.40
2022-08-30T09:46:16.394Z,92.90
2022-08-30T09:49:41.553Z,92.60
2022-08-30T09:53:15.232Z,90.90
2022-08-30T09:56:54.557Z,90.00
2022-08-30T10:00:05.522Z,88.40
2022-08-30T10:03:43.940Z,88.60
2022-08-30T10:07:06.791Z,86.90
2022-08-30T10:10:30.556Z,86.20
2022-08-30T10:14:00.283Z,86.90
2022-08-30T10:17:33.576Z,89.00
2022-08-30T10:21:02.814Z,87.60
2022-08-30T10:27:49.106Z,90.90
2022-08-30T10:31:29.416Z,89.80
2022-08-30T10:34:42.816Z,87.40
2022-08-30T10:37:54.090Z,88.50
2022-08-30T10:41:13.672Z,86.20
2022-08-30T10:44:37.661Z,82.70
2022-08-30T10:47:56.785Z,83.50
2022-08-30T10:51:20.540Z,82.50
2022-08-30T10:54:48.716Z,82.30
2022-08-30T10:57:51.350Z,79.50
2022-08-30T11:01:30.340Z,78.10
2022-08-30T11:04:55.116Z,76.50
2022-08-30T11:08:49.653Z,76.40
2022-08-30T11:12:25.364Z,82.10
2022-08-30T11:15:34.604Z,83.10
2022-08-30T11:22:33.320Z,81.80
2022-08-30T11:26:01.904Z,80.10
2022-08-30T11:29:07.422Z,79.80
2022-08-30T11:32:17.349Z,80.60
2022-08-30T11:35:37.744Z,79.30
2022-08-30T11:38:39.112Z,79.60
2022-08-30T11:41:47.747Z,78.20
2022-08-30T11:44:48.934Z,76.30
2022-08-30T11:48:10.203Z,77.60
2022-08-30T11:51:44.377Z,75.70
2022-08-30T11:55:03.938Z,78.40
2022-08-30T11:58:44.235Z,75.80
2022-08-30T12:01:51.152Z,76.50
2022-08-30T12:04:56.361Z,76.40
2022-08-30T12:08:02.750Z,78.20
2022-08-30T12:11:11.636Z,78.50
2022-08-30T12:14:49.214Z,77.60
2022-08-30T12:18:17.290Z,78.10
2022-08-30T12:21:21.472Z,75.40
2022-08-30T12:24:41.129Z,76.30
2022-08-30T12:27:42.099Z,76.40
2022-08-30T12:30:46.733Z,74.90
2022-08-30T12:34:03.415Z,71.50
2022-08-30T12:37:10.901Z,74.40
2022-08-30T12:40:21.093Z,75.20
2022-08-30T12:43:52.501Z,78.00
2022-08-30T12:47:02.967Z,78.10
2022-08-30T12:50:07.306Z,74.80
2022-08-30T12:53:14.605Z,73.70
2022-08-30T12:56:35.098Z,77.30
2022-08-30T12:59:59.845Z,76.50
2022-08-30T13:03:24.231Z,77.60
2022-08-30T13:06:37.814Z,72.10
2022-08-30T13:09:43.291Z,74.00
2022-08-30T13:13:06.131Z,76.90
2022-08-30T13:16:18.921Z,70.70
2022-08-30T13:19:41.404Z,76.20
2022-08-30T13:23:05.921Z,74.90
2022-08-30T13:26:08.559Z,73.10
2022-08-30T13:29:20.755Z,68.30
2022-08-30T13:32:23.301Z,65.40
2022-08-30T13:35:24.543Z,64.50
2022-08-30T13:38:25.511Z,63.50
2022-08-30T13:41:26.836Z,65.00
2022-08-30T13:44:35.730Z,61.60
2022-08-30T13:47:37.375Z,61.50
2022-08-30T13:50:38.975Z,59.20
2022-08-30T13:53:56.921Z,57.90
2022-08-30T13:56:59.012Z,59.00
2022-08-30T14:00:00.039Z,60.80
2022-08-30T14:03:01.703Z,58.30
2022-08-30T14:06:29.558Z,61.90
2022-08-30T14:09:25.134Z,60.70
2022-08-30T14:15:48.565Z,56.10
2022-08-30T14:18:50.836Z,59.50
2022-08-30T14:21:51.998Z,61.40
2022-08-30T14:24:54.372Z,60.90
2022-08-30T14:27:57.088Z,60.40
2022-08-30T14:30:58.356Z,60.20
2022-08-30T14:34:00.251Z,60.80
2022-08-30T14:37:01.026Z,59.90
2022-08-30T14:40:02.341Z,58.10
2022-08-30T14:43:04.206Z,59.00
2022-08-30T14:46:05.450Z,58.90
2022-08-30T14:49:06.663Z,58.80
2022-08-30T14:52:08.975Z,59.00
2022-08-30T14:55:12.700Z,59.60
2022-08-30T14:58:18.132Z,60.50
2022-08-30T15:01:20.792Z,59.50
2022-08-30T15:04:22.365Z,60.50
2022-08-30T15:07:23.612Z,58.60
2022-08-30T15:10:25.276Z,61.20
2022-08-30T15:13:26.611Z,63.00
2022-08-30T15:16:33.115Z,64.40
2022-08-30T15:19:35.962Z,67.00
2022-08-30T15:22:40.234Z,67.80
2022-08-30T15:25:43.648Z,69.30
2022-08-30T15:28:45.224Z,69.70
2022-08-30T15:31:49.861Z,69.70
2022-08-30T15:34:55.698Z,68.70
2022-08-30T15:37:57.313Z,71.50
2022-08-30T15:41:03.687Z,73.20
2022-08-30T15:44:07.340Z,74.00
2022-08-30T15:47:08.573Z,72.10
2022-08-30T15:50:10.232Z,75.30
2022-08-30T15:53:10.996Z,76.20
2022-08-30T15:56:12.727Z,80.00
2022-08-30T15:59:18.816Z,80.70
2022-08-30T16:02:19.675Z,77.70
2022-08-30T16:05:23.840Z,78.50
2022-08-30T16:08:27.142Z,75.40
2022-08-30T16:11:28.345Z,76.20
2022-08-30T16:14:29.817Z,76.80
2022-08-30T16:17:30.908Z,75.50
2022-08-30T16:20:31.885Z,75.00
2022-08-30T16:23:34.296Z,74.60
2022-08-30T16:26:37.208Z,75.50
2022-08-30T16:29:38.166Z,79.20
2022-08-30T16:32:40.019Z,78.80
2022-08-30T16:35:41.869Z,78.40
2022-08-30T16:38:44.064Z,78.70
2022-08-30T16:41:46.598Z,78.30
2022-08-30T16:44:47.288Z,78.40
2022-08-30T16:47:50.664Z,79.20
2022-08-30T16:50:53.028Z,79.80
2022-08-30T16:54:00.699Z,79.60
2022-08-30T16:57:01.960Z,81.50
2022-08-30T17:00:06.492Z,83.10
2022-08-30T17:03:15.687Z,84.40
2022-08-30T17:06:18.094Z,86.30
2022-08-30T17:09:22.319Z,87.20
2022-08-30T17:12:23.929Z,87.30
2022-08-30T17:15:27.185Z,89.40
2022-08-30T17:18:29.970Z,90.40
2022-08-30T17:21:32.370Z,90.80
2022-08-30T17:24:33.606Z,91.50
2022-08-30T17:27:36.538Z,92.40
2022-08-30T17:30:37.807Z,92.20
2022-08-30T17:33:40.704Z,92.50
2022-08-30T17:36:42.070Z,93.20
2022-08-30T17:39:44.322Z,93.10
2022-08-30T17:42:45.973Z,93.80
2022-08-30T17:45:48.473Z,94.30
2022-08-30T17:48:57.568Z,94.60
2022-08-30T17:52:00.572Z,95.40
2022-08-30T17:55:02.044Z,95.60
2022-08-30T17:58:03.442Z,97.00
2022-08-30T18:01:14.685Z,97.70
2022-08-30T18:04:19.410Z,98.40
2022-08-30T18:07:21.374Z,97.70
2022-08-30T18:10:26.769Z,98.00
2022-08-30T18:13:35.925Z,98.30
2022-08-30T18:16:38.431Z,98.70
2022-08-30T18:19:48.573Z,99.90
2022-08-30T18:22:49.566Z,99.20
2022-08-30T18:26:02.085Z,98.90
2022-08-30T18:29:04.432Z,97.50
2022-08-30T18:32:06.096Z,97.20
2022-08-30T18:35:10.576Z,96.30
2022-08-30T18:38:11.709Z,96.30
2022-08-30T18:41:15.081Z,96.40
2022-08-30T18:44:27.684Z,95.40
2022-08-30T18:47:30.560Z,95.20
2022-08-30T18:50:33.578Z,94.40
2022-08-30T18:53:35.558Z,94.30
2022-08-30T18:56:39.192Z,94.30
2022-08-30T18:59:41.997Z,94.00
2022-08-30T19:02:48.119Z,94.70
2022-08-30T19:05:49.555Z,95.00
2022-08-30T19:08:51.004Z,95.40
2022-08-30T19:11:52.371Z,96.30
2022-08-30T19:14:53.498Z,95.20
2022-08-30T19:17:55.256Z,95.70
2022-08-30T19:20:57.494Z,95.10
2022-08-30T19:23:58.282Z,95.30
2022-08-30T19:27:00.130Z,94.30
2022-08-30T19:30:02.460Z,94.40
2022-08-30T19:33:06.482Z,94.80
2022-08-30T19:36:08.070Z,96.90
2022-08-30T19:39:10.224Z,97.20
2022-08-30T19:42:11.640Z,97.30
2022-08-30T19:45:15.536Z,98.10
2022-08-30T19:48:17.032Z,98.20
2022-08-30T19:51:19.501Z,99.40
2022-08-30T19:54:23.183Z,99.90
2022-08-30T19:57:25.555Z,99.90
2022-08-30T20:00:27.462Z,99.90
2022-08-30T20:03:32.271Z,99.60
2022-08-30T20:06:34.402Z,99.50
2022-08-30T20:09:35.835Z,99.90
2022-08-30T20:12:39.925Z,99.90
2022-08-30T20:15:55.610Z,99.90
2022-08-30T20:18:57.561Z,99.90
2022-08-30T20:21:59.093Z,99.90
2022-08-30T20:25:10.917Z,99.90
2022-08-30T20:28:12.264Z,99.90
2022-08-30T20:31:13.526Z,99.90
2022-08-30T20:34:14.374Z,99.90
2022-08-30T20:37:15.623Z,99.90
2022-08-30T20:40:17.356Z,99.90
2022-08-30T20:43:21.235Z,99.90
2022-08-30T20:46:22.012Z,99.90
2022-08-30T20:49:23.746Z,99.90
2022-08-30T20:52:24.792Z,99.90
2022-08-30T20:55:26.180Z,99.90
2022-08-30T20:58:27.133Z,99.90
2022-08-30T21:01:30.026Z,99.90
2022-08-30T21:04:31.904Z,99.90
2022-08-30T21:07:32.822Z,99.90
2022-08-30T21:10:34.224Z,99.90
2022-08-30T21:13:37.155Z,99.90
2022-08-30T21:16:38.300Z,99.90
2022-08-30T21:19:43.669Z,99.90
2022-08-30T21:22:45.006Z,99.90
2022-08-30T21:25:45.757Z,99.90
2022-08-30T21:28:51.943Z,99.90
2022-08-30T21:31:52.987Z,99.90
2022-08-30T21:35:12.203Z,99.90
2022-08-30T21:38:13.487Z,99.90
2022-08-30T21:41:15.184Z,99.90
2022-08-30T21:44:24.953Z,99.90
2022-08-30T21:47:25.647Z,99.90
2022-08-30T21:50:26.308Z,99.90
2022-08-30T21:53:27.630Z,99.90
2022-08-30T21:56:29.382Z,99.90
2022-08-30T21:59:30.820Z,99.90
2022-08-30T22:02:33.465Z,99.90
2022-08-30T22:05:34.458Z,99.90
2022-08-30T22:08:35.489Z,99.90
2022-08-30T22:11:37.492Z,99.90
2022-08-30T22:14:38.830Z,99.90
2022-08-30T22:17:39.688Z,99.90
2022-08-30T22:20:40.660Z,99.90
2022-08-30T22:23:45.159Z,99.90
2022-08-30T22:26:47.605Z,99.90
2022-08-30T22:29:48.649Z,99.90
2022-08-30T22:32:50.405Z,99.90
2022-08-30T22:35:54.552Z,99.90
2022-08-30T22:38:58.866Z,99.90
2022-08-30T22:42:00.034Z,99.90
2022-08-30T22:45:00.853Z,99.90
2022-08-30T22:48:01.622Z,99.90
2022-08-30T22:51:03.388Z,99.90
2022-08-30T22:54:07.299Z,99.90
2022-08-30T22:57:08.215Z,99.90
2022-08-30T23:00:16.348Z,99.90
2022-08-30T23:03:21.798Z,99.90
2022-08-30T23:06:23.893Z,99.90
2022-08-30T23:09:24.750Z,99.90
2022-08-30T23:12:29.379Z,99.90
2022-08-30T23:15:30.525Z,99.90
2022-08-30T23:18:32.538Z,99.90
2022-08-30T23:21:33.605Z,99.90
2022-08-30T23:24:53.242Z,99.90
2022-08-30T23:28:19.093Z,99.90
2022-08-30T23:31:40.186Z,99.90
2022-08-30T23:35:00.406Z,99.90
2022-08-30T23:38:24.485Z,99.90
2022-08-30T23:41:43.722Z,99.90
2022-08-30T23:45:03.271Z,99.90
2022-08-30T23:48:22.917Z,99.90
2022-08-30T23:51:42.019Z,99.90
2022-08-30T23:55:01.829Z,99.90
2022-08-30T23:58:21.876Z,99.90
